Current Weather

Yola

Yola, Nigeria (DNYO)

Report from: Monday, February 6, 2023 3:00 AM +10
Current time: Monday, February 6, 2023 4:21 PM +10

Nearby weather
Weather history
Weather forecast

Temperature38.0°C (100.4°F)
Heat index35.6°C (96.1°F)
Dew point6.0°C (42.8°F)
Winds Calm
Clouds Sky clear
Altimeter29.80 in.Hg (1009 mB)
Relative humidity14 %
Density altitude2,875 ft. (876 m)
Remarks Ceiling and visibility OK
Flight conditions Visual Meteorological Conditions
Raw dataDNYO 051700Z 00000KT CAVOK 38/06 Q1009
An error has occurred. This application may no longer respond until reloaded. Reload 🗙